Time;durP1;ratioP1;P1;durP2;ratioP2;P2;SDS_P1;SDS_P2;PMS_P1;PMS_P2;Temp;Humidity;BMP_temperature;BMP_pressure;BME280_temperature;BME280_humidity;BME280_pressure;Samples;Min_cycle;Max_cycle;Signal;HPM_P1;HPM_P2
2022/12/28 00:00:24;;;;;;;12.40;6.53;;;2.50;99.90;;;;;;4906730;29;20083;-74
2022/12/28 06:02:43;;;;;;;3.20;0.63;;;6.40;99.90;;;;;;5330848;23;20052;-74
2022/12/28 06:05:09;;;;;;;1.85;0.60;;;6.40;99.90;;;;;;4923270;29;20040;-75
2022/12/28 06:07:34;;;;;;;1.63;0.60;;;6.40;99.90;;;;;;4925333;29;20217;-74
2022/12/28 06:10:00;;;;;;;3.47;0.80;;;6.50;99.90;;;;;;4924616;29;20044;-75
2022/12/28 06:12:26;;;;;;;1.90;0.52;;;6.50;99.90;;;;;;4925168;29;20095;-75
2022/12/28 06:14:52;;;;;;;3.13;0.60;;;6.50;99.90;;;;;;4925219;29;20336;-75
2022/12/28 06:17:18;;;;;;;2.95;0.90;;;6.40;99.90;;;;;;4924235;29;20024;-75
2022/12/28 06:19:43;;;;;;;3.42;0.70;;;6.40;99.90;;;;;;4924815;29;20307;-75
2022/12/28 06:22:09;;;;;;;2.33;0.60;;;6.40;99.90;;;;;;4924510;29;20294;-74
2022/12/28 06:24:35;;;;;;;1.83;0.60;;;6.40;99.90;;;;;;4923794;29;20031;-74
2022/12/28 06:27:00;;;;;;;1.85;0.60;;;6.40;99.90;;;;;;4924126;29;20116;-75
2022/12/28 06:29:26;;;;;;;2.55;0.82;;;6.40;99.90;;;;;;4923772;29;20255;-74
2022/12/28 06:31:53;;;;;;;3.17;0.82;;;6.40;99.90;;;;;;4924713;29;20039;-74
2022/12/28 06:34:19;;;;;;;3.08;0.75;;;6.30;99.90;;;;;;4924113;29;20020;-74
2022/12/28 06:36:45;;;;;;;2.17;0.80;;;6.20;99.90;;;;;;4924500;29;20036;-74
2022/12/28 06:39:13;;;;;;;3.92;1.33;;;6.20;99.90;;;;;;4924304;29;20046;-75
2022/12/28 06:41:39;;;;;;;3.17;1.40;;;6.10;99.90;;;;;;4925417;29;20329;-74
2022/12/28 06:44:06;;;;;;;3.20;1.50;;;5.90;99.90;;;;;;4927421;29;20059;-75
2022/12/28 06:46:32;;;;;;;3.30;1.60;;;5.80;99.90;;;;;;4927999;29;20032;-74
2022/12/28 06:48:58;;;;;;;3.90;1.85;;;5.70;99.90;;;;;;4928228;29;20032;-75
2022/12/28 06:51:27;;;;;;;3.28;1.80;;;5.60;99.90;;;;;;4926236;29;20051;-74
2022/12/28 06:53:53;;;;;;;;;;;5.60;99.90;;;;;;4928521;29;20024;-74
2022/12/28 06:56:24;;;;;;;3.28;1.50;;;5.60;99.90;;;;;;4927141;29;19922;-73
2022/12/28 06:58:51;;;;;;;2.92;1.63;;;5.50;99.90;;;;;;4927926;29;20088;-73
2022/12/28 07:01:22;;;;;;;3.60;1.80;;;5.50;99.90;;;;;;4925844;29;20054;-73
2022/12/28 07:03:49;;;;;;;7.72;2.38;;;5.40;99.90;;;;;;4910978;29;20040;-73
2022/12/28 07:06:16;;;;;;;6.70;2.50;;;5.40;99.90;;;;;;4908406;29;20036;-73
2022/12/28 07:08:44;;;;;;;7.93;3.23;;;5.40;99.90;;;;;;4908943;29;20029;-73
2022/12/28 07:11:12;;;;;;;10.95;3.35;;;5.40;99.90;;;;;;4908094;29;20453;-73
2022/12/28 07:13:38;;;;;;;8.70;3.58;;;5.30;99.90;;;;;;4908809;29;20056;-74
2022/12/28 07:16:06;;;;;;;11.50;3.25;;;5.30;99.90;;;;;;4908146;29;20195;-74
2022/12/28 07:18:32;;;;;;;8.18;3.33;;;5.30;99.90;;;;;;4908850;29;20116;-73
2022/12/28 07:21:04;;;;;;;8.70;3.08;;;5.30;99.90;;;;;;4908634;29;20028;-73
2022/12/28 07:23:30;;;;;;;7.20;2.63;;;5.30;99.90;;;;;;4908693;29;20072;-73
2022/12/28 07:26:02;;;;;;;3.42;0.98;;;5.30;99.90;;;;;;4908713;29;20024;-73
2022/12/28 07:28:28;;;;;;;4.28;1.65;;;5.40;99.90;;;;;;4908264;29;20076;-73
2022/12/28 07:30:54;;;;;;;4.88;2.20;;;5.50;99.90;;;;;;4922853;29;20056;-75
2022/12/28 07:33:20;;;;;;;5.47;2.22;;;5.50;99.90;;;;;;4908010;29;20080;-74
2022/12/28 07:35:45;;;;;;;5.82;2.20;;;5.50;99.90;;;;;;4907987;29;20100;-73
2022/12/28 07:38:11;;;;;;;5.55;1.92;;;5.60;99.90;;;;;;4926104;29;20028;-73
2022/12/28 07:40:37;;;;;;;5.65;2.50;;;5.60;99.90;;;;;;4927229;29;20036;-74
2022/12/28 07:43:03;;;;;;;3.10;1.55;;;5.60;99.90;;;;;;4942020;29;20039;-73
2022/12/28 07:45:28;;;;;;;2.92;1.50;;;5.60;99.90;;;;;;4926713;29;20344;-73
2022/12/28 07:47:54;;;;;;;3.10;1.73;;;5.60;99.90;;;;;;4927258;29;20079;-73
2022/12/28 07:50:20;;;;;;;3.92;1.73;;;5.70;99.90;;;;;;4926642;29;20099;-73
2022/12/28 07:52:46;;;;;;;3.80;1.40;;;5.70;99.90;;;;;;4925229;29;20125;-74
2022/12/28 07:55:12;;;;;;;3.47;1.08;;;5.70;99.90;;;;;;4926484;29;20210;-74
2022/12/28 07:57:38;;;;;;;4.38;1.00;;;5.80;99.90;;;;;;4927046;29;20051;-73
2022/12/28 08:00:06;;;;;;;3.35;0.90;;;5.90;99.90;;;;;;4926808;29;20040;-74
2022/12/28 08:02:38;;;;;;;3.13;0.90;;;6.10;99.90;;;;;;4926401;29;20059;-74
2022/12/28 08:05:04;;;;;;;2.83;0.80;;;6.20;99.90;;;;;;4911567;29;20032;-73
2022/12/28 08:07:29;;;;;;;3.00;0.90;;;6.30;99.90;;;;;;4907102;29;20040;-74
2022/12/28 08:09:55;;;;;;;5.00;1.10;;;6.30;99.90;;;;;;4907796;29;20039;-74
2022/12/28 08:12:21;;;;;;;2.58;1.00;;;6.40;99.90;;;;;;4907294;29;20035;-74
2022/12/28 08:14:46;;;;;;;3.40;0.93;;;6.40;99.90;;;;;;4907485;29;20040;-74
2022/12/28 08:17:12;;;;;;;1.80;0.77;;;6.50;99.90;;;;;;4905954;29;20072;-74
2022/12/28 08:19:38;;;;;;;2.58;0.88;;;6.50;99.90;;;;;;4906434;29;20033;-74
2022/12/28 08:22:04;;;;;;;2.85;1.00;;;6.60;99.90;;;;;;4907330;29;20043;-73
2022/12/28 08:24:29;;;;;;;3.65;1.17;;;6.60;99.90;;;;;;4907021;29;20052;-74
2022/12/28 08:26:55;;;;;;;2.60;1.13;;;6.70;99.90;;;;;;4907191;29;20028;-73
2022/12/28 08:29:21;;;;;;;3.45;1.40;;;6.70;99.90;;;;;;4906919;29;20037;-73
2022/12/28 08:31:48;;;;;;;2.30;1.00;;;6.70;99.90;;;;;;4907381;29;20028;-74
2022/12/28 08:34:25;;;;;;;2.90;1.10;;;6.80;99.90;;;;;;4906577;29;20222;-74
2022/12/28 08:36:53;;;;;;;5.05;1.88;;;6.90;99.90;;;;;;4907169;29;20207;-74
2022/12/28 08:39:19;;;;;;;12.35;7.75;;;6.90;99.90;;;;;;4906512;29;20060;-75
2022/12/28 08:41:44;;;;;;;3.63;1.30;;;6.90;99.90;;;;;;4907378;29;20227;-74
2022/12/28 08:44:10;;;;;;;3.45;1.38;;;7.00;99.90;;;;;;4906709;29;20032;-73
2022/12/28 08:46:36;;;;;;;2.78;1.10;;;7.10;99.90;;;;;;4905912;29;20096;-74
2022/12/28 08:49:02;;;;;;;3.67;1.27;;;7.20;99.90;;;;;;4905915;29;20025;-74
2022/12/28 08:51:38;;;;;;;2.72;0.90;;;7.20;99.90;;;;;;4905096;29;20308;-73
2022/12/28 08:54:05;;;;;;;3.03;1.05;;;7.40;99.90;;;;;;4905875;29;20028;-75
2022/12/28 08:56:33;;;;;;;2.85;0.90;;;7.50;99.90;;;;;;4906010;29;20032;-75
2022/12/28 08:59:00;;;;;;;4.88;1.35;;;7.60;99.90;;;;;;4906700;29;20028;-73
2022/12/28 09:01:30;;;;;;;3.78;1.13;;;7.60;99.90;;;;;;4905927;29;20031;-74
2022/12/28 09:03:58;;;;;;;3.92;1.50;;;7.70;99.90;;;;;;4906482;29;20067;-74
2022/12/28 09:06:27;;;;;;;4.47;1.45;;;7.90;99.90;;;;;;4906273;29;20028;-74
2022/12/28 09:08:55;;;;;;;3.38;1.45;;;8.00;99.90;;;;;;4906778;29;20043;-74
2022/12/28 09:11:21;;;;;;;3.65;1.42;;;8.10;99.90;;;;;;4905955;29;20303;-74
2022/12/28 09:13:48;;;;;;;3.63;1.25;;;8.20;99.90;;;;;;4906827;29;20037;-74
2022/12/28 09:16:17;;;;;;;4.03;1.08;;;8.30;99.90;;;;;;4904961;29;20039;-74
2022/12/28 09:18:44;;;;;;;3.15;1.00;;;8.30;99.90;;;;;;4904184;29;20048;-74
2022/12/28 09:21:17;;;;;;;2.72;0.80;;;8.40;99.90;;;;;;4906577;29;20056;-74
2022/12/28 09:23:44;;;;;;;3.28;0.98;;;8.40;99.90;;;;;;4906938;29;20037;-73
2022/12/28 09:26:17;;;;;;;3.13;0.95;;;8.50;99.90;;;;;;4906673;29;20337;-74
2022/12/28 09:28:48;;;;;;;3.50;1.10;;;8.50;99.90;;;;;;4901540;29;20044;-73
2022/12/28 09:31:14;;;;;;;2.67;0.88;;;8.60;99.90;;;;;;4900069;29;20073;-74
2022/12/28 09:36:30;;;;;;;2.72;1.27;;;8.60;99.90;;;;;;4903215;29;20108;-75
2022/12/28 09:38:57;;;;;;;2.63;1.08;;;8.60;99.90;;;;;;4887932;29;20116;-75
2022/12/28 09:41:37;;;;;;;3.60;1.00;;;8.60;99.90;;;;;;4901978;29;20025;-75
2022/12/28 09:44:12;;;;;;;2.80;1.13;;;8.50;99.90;;;;;;4887654;29;20121;-76
2022/12/28 09:46:46;;;;;;;3.63;1.20;;;8.60;99.90;;;;;;4888310;29;20037;-75
2022/12/28 09:49:15;;;;;;;2.95;1.50;;;8.60;99.90;;;;;;4894762;29;20025;-76
2022/12/28 09:51:51;;;;;;;3.30;1.00;;;8.70;99.90;;;;;;4906814;29;20064;-74
2022/12/28 09:54:17;;;;;;;3.67;1.20;;;8.70;99.90;;;;;;4906121;29;20048;-75
2022/12/28 09:56:44;;;;;;;4.93;1.33;;;8.80;99.90;;;;;;4906221;29;20047;-75
2022/12/28 09:59:24;;;;;;;4.68;1.42;;;9.00;99.90;;;;;;4906483;29;20225;-75
2022/12/28 10:01:57;;;;;;;1.90;0.90;;;9.00;99.90;;;;;;4906046;29;20264;-75
2022/12/28 10:04:23;;;;;;;3.72;1.33;;;9.20;99.90;;;;;;4915510;29;20043;-75
2022/12/28 10:06:49;;;;;;;2.67;1.50;;;9.30;99.90;;;;;;4925439;29;20103;-75
2022/12/28 10:09:24;;;;;;;3.33;1.42;;;9.40;99.90;;;;;;4924510;29;20259;-75
2022/12/28 10:11:50;;;;;;;4.45;1.20;;;9.40;99.90;;;;;;4925267;29;20095;-76
2022/12/28 10:14:29;;;;;;;3.92;1.50;;;9.40;99.90;;;;;;4924863;29;20032;-75
2022/12/28 10:16:55;;;;;;;3.42;1.50;;;9.40;99.90;;;;;;4927833;29;20225;-73
2022/12/28 10:19:26;;;;;;;3.90;1.48;;;9.50;99.90;;;;;;4928429;29;20095;-73
2022/12/28 10:22:07;;;;;;;2.47;1.13;;;9.60;99.90;;;;;;4928442;29;20334;-73
2022/12/28 10:24:33;;;;;;;3.10;1.40;;;9.70;99.90;;;;;;4928126;29;20313;-73
2022/12/28 10:27:03;;;;;;;4.15;1.60;;;9.80;99.90;;;;;;4911282;29;20040;-74
2022/12/28 10:29:30;;;;;;;3.42;1.40;;;9.80;99.90;;;;;;4909066;29;20242;-73
2022/12/28 10:32:00;;;;;;;4.32;2.03;;;10.00;99.90;;;;;;4909577;29;20037;-75
2022/12/28 10:34:27;;;;;;;3.35;1.30;;;10.00;99.90;;;;;;4909259;29;20024;-73
2022/12/28 10:36:55;;;;;;;2.88;1.27;;;10.10;99.90;;;;;;4909514;29;20103;-73
2022/12/28 10:39:26;;;;;;;2.33;1.27;;;10.30;99.90;;;;;;4908937;29;20035;-73
2022/12/28 10:41:53;;;;;;;2.38;1.25;;;10.60;99.90;;;;;;4893900;29;20040;-74
2022/12/28 10:44:25;;;;;;;3.92;1.10;;;10.70;99.90;;;;;;4889780;29;20100;-73
2022/12/28 10:46:57;;;;;;;3.85;1.20;;;10.90;99.90;;;;;;4890366;29;20036;-74
2022/12/28 10:49:26;;;;;;;5.88;2.78;;;11.10;99.90;;;;;;4890324;29;20029;-74
2022/12/28 10:52:18;;;;;;;2.90;1.42;;;11.20;99.90;;;;;;4893687;29;20092;-74
2022/12/28 10:54:45;;;;;;;4.07;1.10;;;11.20;99.90;;;;;;4890841;29;20321;-74
2022/12/28 10:57:28;;;;;;;3.47;1.13;;;11.20;99.90;;;;;;4890433;29;20041;-73
2022/12/28 11:00:14;;;;;;;3.47;1.00;;;11.30;99.70;;;;;;4890556;29;20053;-73
2022/12/28 11:02:40;;;;;;;2.83;0.70;;;11.40;99.40;;;;;;4889812;29;20057;-73
2022/12/28 11:05:05;;;;;;;2.67;0.70;;;11.50;99.00;;;;;;4890383;29;20041;-73
2022/12/28 11:07:31;;;;;;;1.95;0.73;;;11.50;98.60;;;;;;4904452;29;20064;-73
2022/12/28 11:10:21;;;;;;;2.65;0.65;;;11.80;98.30;;;;;;4890189;29;20033;-73
2022/12/28 11:12:48;;;;;;;2.20;0.60;;;12.00;97.80;;;;;;4890053;29;20060;-73
2022/12/28 11:15:18;;;;;;;2.55;0.50;;;12.40;97.00;;;;;;4890178;29;20025;-73
2022/12/28 11:17:47;;;;;;;2.25;0.50;;;12.70;96.20;;;;;;4889832;29;20041;-74
2022/12/28 11:20:19;;;;;;;1.73;0.60;;;12.70;96.00;;;;;;4889930;29;20305;-75
2022/12/28 11:22:46;;;;;;;2.22;0.50;;;12.10;96.10;;;;;;4889867;29;20046;-74
2022/12/28 11:25:17;;;;;;;1.70;0.47;;;11.80;96.60;;;;;;4889876;29;20315;-76
2022/12/28 11:27:47;;;;;;;2.22;0.30;;;11.60;96.70;;;;;;4889404;29;20041;-75
2022/12/28 11:30:17;;;;;;;2.35;0.52;;;11.40;97.10;;;;;;4904503;29;20055;-74
2022/12/28 11:32:55;;;;;;;2.58;0.88;;;11.30;97.40;;;;;;4908371;29;20053;-75
2022/12/28 11:35:25;;;;;;;2.33;0.60;;;11.20;97.70;;;;;;4908005;29;20031;-74
2022/12/28 11:37:57;;;;;;;5.43;2.65;;;11.30;97.40;;;;;;4908584;29;20036;-75
2022/12/28 11:40:46;;;;;;;3.60;1.00;;;11.50;97.50;;;;;;4908159;29;20037;-74
2022/12/28 11:43:27;;;;;;;1.67;0.50;;;11.60;97.10;;;;;;4907414;29;20032;-73
2022/12/28 11:45:54;;;;;;;1.90;0.50;;;11.90;96.50;;;;;;4908385;29;20206;-75
2022/12/28 11:48:46;;;;;;;2.42;0.75;;;12.30;96.00;;;;;;4907756;29;20112;-74
2022/12/28 11:51:28;;;;;;;2.40;0.80;;;12.30;95.40;;;;;;4906997;29;20031;-74
2022/12/28 11:53:57;;;;;;;2.28;0.55;;;12.20;95.60;;;;;;4908255;29;20059;-74
2022/12/28 11:56:42;;;;;;;1.75;0.47;;;11.90;95.80;;;;;;4906379;29;20036;-74
2022/12/28 11:59:25;;;;;;;1.70;0.57;;;11.80;95.90;;;;;;4908165;29;20060;-75
2022/12/28 12:02:02;;;;;;;3.78;0.95;;;11.60;96.00;;;;;;4907687;29;20111;-75
2022/12/28 12:04:36;;;;;;;1.52;0.50;;;11.70;96.30;;;;;;4907609;29;20033;-74
2022/12/28 12:07:02;;;;;;;2.90;0.70;;;11.90;96.00;;;;;;4908190;29;20052;-74
2022/12/28 12:09:39;;;;;;;3.05;0.70;;;12.50;95.20;;;;;;4907594;29;20096;-75
2022/12/28 12:12:13;;;;;;;1.60;0.60;;;12.60;95.00;;;;;;4907923;29;20025;-74
2022/12/28 12:14:41;;;;;;;1.77;0.50;;;12.50;94.80;;;;;;4906413;29;20028;-75
2022/12/28 12:17:39;;;;;;;2.72;0.60;;;12.30;95.00;;;;;;4907568;29;20055;-74
2022/12/28 12:20:16;;;;;;;1.42;0.50;;;12.20;95.10;;;;;;4907580;29;20070;-73
2022/12/28 12:22:52;;;;;;;3.38;0.52;;;11.90;95.50;;;;;;4907046;29;20374;-74
2022/12/28 12:25:32;;;;;;;1.83;0.45;;;11.90;95.60;;;;;;4907391;29;20044;-74
2022/12/28 12:28:02;;;;;;;2.80;0.88;;;11.80;95.70;;;;;;4907694;29;20084;-74
2022/12/28 12:30:30;;;;;;;3.55;0.85;;;11.80;95.80;;;;;;4906925;29;20043;-74
2022/12/28 12:33:12;;;;;;;3.75;1.80;;;12.10;95.40;;;;;;4907583;29;20035;-74
2022/12/28 12:35:52;;;;;;;2.97;2.10;;;12.50;95.40;;;;;;4906651;29;20036;-74
2022/12/28 12:39:03;;;;;;;2.95;1.25;;;12.60;95.00;;;;;;4907620;29;20048;-73
2022/12/28 12:41:59;;;;;;;2.45;0.60;;;12.60;95.00;;;;;;4906897;29;20073;-73
2022/12/28 12:45:01;;;;;;;2.83;0.88;;;12.70;94.90;;;;;;4906671;29;20310;-74
2022/12/28 12:47:47;;;;;;;1.55;0.38;;;12.50;94.80;;;;;;4905309;29;20107;-73
2022/12/28 12:50:50;;;;;;;2.08;0.43;;;12.10;95.20;;;;;;4906944;29;20073;-73
2022/12/28 12:53:27;;;;;;;1.67;0.50;;;12.10;95.50;;;;;;4907025;29;20099;-74
2022/12/28 12:56:28;;;;;;;1.50;0.50;;;12.60;95.10;;;;;;4906919;29;20374;-75
2022/12/28 12:59:42;;;;;;;2.45;0.52;;;12.80;94.70;;;;;;4907246;29;20058;-73
2022/12/28 13:02:10;;;;;;;2.05;0.55;;;12.50;94.80;;;;;;4906010;29;20040;-74
2022/12/28 13:04:40;;;;;;;2.50;0.38;;;12.10;95.10;;;;;;4906470;29;20236;-73
2022/12/28 13:07:20;;;;;;;3.22;0.50;;;11.90;95.50;;;;;;4907018;29;20092;-74
2022/12/28 13:09:47;;;;;;;3.00;0.55;;;11.80;95.90;;;;;;4906665;29;20085;-74
2022/12/28 13:12:16;;;;;;;2.53;0.60;;;11.70;95.60;;;;;;4906712;29;20037;-73
2022/12/28 13:14:47;;;;;;;2.45;0.50;;;11.60;95.80;;;;;;4906543;29;20054;-74
2022/12/28 13:17:18;;;;;;;1.55;0.63;;;11.50;96.30;;;;;;4906852;29;20141;-73
2022/12/28 13:19:44;;;;;;;4.43;1.10;;;11.40;96.10;;;;;;4906575;29;20032;-73
2022/12/28 13:22:31;;;;;;;4.25;1.80;;;11.30;96.50;;;;;;4905668;29;20254;-73
2022/12/28 13:25:00;;;;;;;2.33;0.80;;;11.20;96.90;;;;;;4921604;29;20032;-75
2022/12/28 13:27:33;;;;;;;1.27;0.40;;;11.10;96.90;;;;;;4905735;29;20052;-74
2022/12/28 13:30:00;;;;;;;1.90;0.50;;;11.00;97.10;;;;;;4906687;29;20029;-75
2022/12/28 13:32:28;;;;;;;2.20;0.60;;;10.90;97.20;;;;;;4905315;29;20354;-75
2022/12/28 13:34:54;;;;;;;2.47;0.68;;;10.90;97.50;;;;;;4906945;29;20029;-74
2022/12/28 13:37:21;;;;;;;2.70;1.10;;;10.80;97.90;;;;;;4906583;29;20048;-74
2022/12/28 13:39:47;;;;;;;5.72;2.58;;;10.80;97.70;;;;;;4906255;29;20031;-74
2022/12/28 13:42:15;;;;;;;2.80;1.83;;;10.70;97.90;;;;;;4906708;29;20028;-74
2022/12/28 13:45:02;;;;;;;2.03;1.20;;;10.80;98.00;;;;;;4906054;29;20044;-74
2022/12/28 13:47:37;;;;;;;2.47;1.33;;;10.70;98.20;;;;;;4906139;29;20033;-74
2022/12/28 13:50:32;;;;;;;3.08;0.85;;;10.70;98.30;;;;;;4906431;29;20031;-74
2022/12/28 13:53:01;;;;;;;2.08;1.10;;;10.60;98.50;;;;;;4910449;29;20111;-73
2022/12/28 13:55:50;;;;;;;4.70;1.70;;;10.60;98.60;;;;;;4910271;29;20032;-74
2022/12/28 13:58:22;;;;;;;1.55;0.60;;;10.50;98.60;;;;;;4910150;29;20084;-75
2022/12/28 14:00:50;;;;;;;3.35;0.80;;;10.50;98.60;;;;;;4909545;29;20037;-72
2022/12/28 14:03:17;;;;;;;3.17;1.02;;;10.50;98.70;;;;;;4910093;29;20053;-74
2022/12/28 14:05:46;;;;;;;1.70;0.70;;;10.50;98.90;;;;;;4910162;29;20028;-74
2022/12/28 14:08:13;;;;;;;2.13;0.75;;;10.40;99.00;;;;;;4910146;29;20097;-73
2022/12/28 14:10:40;;;;;;;1.73;0.70;;;10.40;99.00;;;;;;4924520;29;20024;-74
2022/12/28 14:13:07;;;;;;;3.03;0.80;;;10.40;99.00;;;;;;4910097;29;20028;-74
2022/12/28 14:15:35;;;;;;;3.28;1.35;;;10.40;99.10;;;;;;4909966;29;20054;-73
2022/12/28 14:18:02;;;;;;;2.53;1.00;;;10.40;99.00;;;;;;4909788;29;20112;-74
2022/12/28 14:20:28;;;;;;;6.32;1.77;;;10.40;98.80;;;;;;4909502;29;20034;-74
2022/12/28 14:23:14;;;;;;;3.47;1.10;;;10.30;99.00;;;;;;4908480;29;20028;-74
2022/12/28 14:25:41;;;;;;;11.77;6.18;;;10.30;99.20;;;;;;4909062;29;20032;-74
2022/12/28 14:28:21;;;;;;;2.35;0.73;;;10.30;99.40;;;;;;4909384;29;20271;-74
2022/12/28 14:30:52;;;;;;;2.17;0.65;;;10.30;99.00;;;;;;4908824;29;20043;-74
2022/12/28 14:33:21;;;;;;;3.55;0.90;;;10.30;99.10;;;;;;4909868;29;20104;-74
2022/12/28 14:35:50;;;;;;;1.98;0.50;;;10.30;99.10;;;;;;4909333;29;20024;-75
2022/12/28 14:38:19;;;;;;;3.13;0.65;;;10.20;99.20;;;;;;4909863;29;20085;-75
2022/12/28 14:40:55;;;;;;;3.17;0.70;;;10.20;99.30;;;;;;4909290;29;20116;-75
2022/12/28 14:43:29;;;;;;;1.58;0.60;;;10.20;99.30;;;;;;4909564;29;20029;-74
2022/12/28 14:45:56;;;;;;;1.65;0.60;;;10.20;99.30;;;;;;4909650;29;20028;-74
2022/12/28 14:48:28;;;;;;;2.50;0.70;;;10.20;99.30;;;;;;4909659;29;20254;-74
2022/12/28 14:51:19;;;;;;;2.33;0.68;;;10.20;99.30;;;;;;4907755;29;20055;-74
2022/12/28 14:54:22;;;;;;;2.60;0.60;;;10.20;99.40;;;;;;4908286;29;20032;-74
2022/12/28 14:57:02;;;;;;;2.17;0.60;;;10.10;99.30;;;;;;4908367;29;20040;-75
2022/12/28 14:59:35;;;;;;;2.92;1.15;;;10.10;99.30;;;;;;4909141;29;20033;-75
2022/12/28 15:02:02;;;;;;;3.08;0.70;;;10.00;99.30;;;;;;4907172;29;20147;-74
2022/12/28 15:04:38;;;;;;;4.20;1.10;;;10.00;99.50;;;;;;4908888;29;20039;-74
2022/12/28 15:07:06;;;;;;;3.65;0.82;;;10.00;99.50;;;;;;4909404;29;20032;-75
2022/12/28 15:09:31;;;;;;;2.60;0.97;;;10.00;99.40;;;;;;4908970;29;20052;-75
2022/12/28 15:12:21;;;;;;;2.40;0.80;;;10.00;99.10;;;;;;4908854;29;20029;-74
2022/12/28 15:14:48;;;;;;;2.10;0.82;;;10.00;99.20;;;;;;4908395;29;20058;-75
2022/12/28 15:17:14;;;;;;;2.55;0.95;;;9.90;99.00;;;;;;4909066;29;20040;-75
2022/12/28 15:19:41;;;;;;;2.15;0.73;;;9.90;99.20;;;;;;4908215;29;20025;-74
2022/12/28 15:22:07;;;;;;;2.05;0.93;;;9.80;99.50;;;;;;4908811;29;20040;-75
2022/12/28 15:24:33;;;;;;;5.35;1.48;;;9.80;99.30;;;;;;4908282;29;20028;-74
2022/12/28 15:26:59;;;;;;;3.70;0.82;;;9.80;99.40;;;;;;4908655;29;20050;-75
2022/12/28 15:29:25;;;;;;;2.38;1.02;;;9.70;99.50;;;;;;4908630;29;20169;-74
2022/12/28 15:31:51;;;;;;;2.45;1.20;;;9.70;99.60;;;;;;4908144;29;20044;-74
2022/12/28 15:34:17;;;;;;;6.72;3.60;;;9.60;99.50;;;;;;4908800;29;20138;-74
2022/12/28 15:36:44;;;;;;;4.18;1.58;;;9.60;99.90;;;;;;4908306;29;20278;-74
2022/12/28 15:39:12;;;;;;;4.43;1.88;;;9.50;99.90;;;;;;4908454;29;20313;-74
2022/12/28 15:41:47;;;;;;;4.40;1.80;;;9.40;99.90;;;;;;4908340;29;20035;-74
2022/12/28 15:44:18;;;;;;;4.00;1.60;;;9.30;99.90;;;;;;4908373;29;20128;-74
2022/12/28 15:46:45;;;;;;;4.68;2.08;;;9.20;99.90;;;;;;4908126;29;20196;-75
2022/12/28 15:49:13;;;;;;;3.95;1.90;;;9.10;99.90;;;;;;4908230;29;20230;-74
2022/12/28 15:51:40;;;;;;;4.80;2.20;;;9.00;99.90;;;;;;4908122;29;20194;-75
2022/12/28 15:54:06;;;;;;;3.75;1.75;;;8.90;99.90;;;;;;4908194;29;20445;-75
2022/12/28 15:56:34;;;;;;;3.90;1.40;;;8.80;99.90;;;;;;4908279;29;20049;-74
2022/12/28 15:59:03;;;;;;;2.88;1.30;;;8.70;99.90;;;;;;4908051;29;20226;-75
2022/12/28 16:01:30;;;;;;;2.83;1.65;;;8.70;99.90;;;;;;4907909;29;20060;-74
2022/12/28 16:03:58;;;;;;;4.38;1.75;;;8.70;99.90;;;;;;4907884;29;20029;-75
2022/12/28 16:06:25;;;;;;;3.97;1.73;;;8.60;99.90;;;;;;4908149;29;20055;-74
2022/12/28 16:08:58;;;;;;;4.65;2.30;;;8.60;99.90;;;;;;4907561;29;20024;-74
2022/12/28 16:11:25;;;;;;;5.38;2.42;;;8.50;99.90;;;;;;4908134;29;20048;-74
2022/12/28 16:13:53;;;;;;;6.85;3.05;;;8.50;99.90;;;;;;4907351;29;20135;-74
2022/12/28 16:16:20;;;;;;;4.55;2.70;;;8.40;99.90;;;;;;4907941;29;20322;-74
2022/12/28 16:18:46;;;;;;;5.20;2.60;;;8.40;99.90;;;;;;4907724;29;20117;-75
2022/12/28 16:21:14;;;;;;;3.55;1.80;;;8.40;99.90;;;;;;4907564;29;20093;-74
2022/12/28 16:23:42;;;;;;;5.53;2.13;;;8.30;99.90;;;;;;4907133;29;20029;-74
2022/12/28 16:26:09;;;;;;;5.35;2.65;;;8.30;99.90;;;;;;4907843;29;20048;-74
2022/12/28 16:28:35;;;;;;;5.35;2.15;;;8.30;99.90;;;;;;4907838;29;20033;-74
2022/12/28 16:31:01;;;;;;;4.70;2.03;;;8.20;99.90;;;;;;4907249;29;20329;-74
2022/12/28 16:33:27;;;;;;;5.15;2.17;;;8.10;99.90;;;;;;4907790;29;20025;-74
2022/12/28 16:35:52;;;;;;;5.38;2.63;;;8.10;99.90;;;;;;4905812;29;20052;-74
2022/12/28 16:38:20;;;;;;;4.28;2.53;;;8.10;99.90;;;;;;4906543;29;20267;-74
2022/12/28 16:40:47;;;;;;;4.15;2.05;;;8.10;99.90;;;;;;4906883;29;20288;-76
2022/12/28 16:43:15;;;;;;;4.65;2.05;;;8.00;99.90;;;;;;4907679;29;20096;-74
2022/12/28 16:45:42;;;;;;;5.10;2.20;;;8.00;99.90;;;;;;4906784;29;20047;-74
2022/12/28 16:48:11;;;;;;;4.97;2.95;;;7.90;99.90;;;;;;4907371;29;20033;-73
2022/12/28 16:50:37;;;;;;;5.13;2.50;;;7.90;99.90;;;;;;4906997;29;20032;-74
2022/12/28 16:53:04;;;;;;;4.57;2.30;;;7.90;99.90;;;;;;4907409;29;20098;-74
2022/12/28 16:55:36;;;;;;;5.65;2.45;;;7.90;99.90;;;;;;4907408;29;20025;-74
2022/12/28 16:58:03;;;;;;;4.07;1.83;;;8.00;99.90;;;;;;4906880;29;20055;-74
2022/12/28 17:00:29;;;;;;;4.10;1.90;;;8.00;99.90;;;;;;4907310;29;20085;-74
2022/12/28 17:02:55;;;;;;;4.32;2.20;;;8.10;99.90;;;;;;4906395;29;20056;-74
2022/12/28 17:05:20;;;;;;;5.28;2.58;;;8.10;99.90;;;;;;4908100;29;20045;-73
2022/12/28 17:07:47;;;;;;;5.80;3.40;;;8.00;99.90;;;;;;4906686;29;20043;-74
2022/12/28 17:10:13;;;;;;;6.53;2.90;;;8.00;99.90;;;;;;4907122;29;20055;-74
2022/12/28 17:12:39;;;;;;;5.63;2.78;;;7.90;99.90;;;;;;4906816;29;20036;-74
2022/12/28 17:15:06;;;;;;;7.03;2.97;;;7.80;99.90;;;;;;4906988;29;20120;-74
2022/12/28 17:17:32;;;;;;;6.63;3.08;;;7.70;99.90;;;;;;4906599;29;20345;-73
2022/12/28 17:19:57;;;;;;;5.68;2.80;;;7.70;99.90;;;;;;4906045;29;20056;-74
2022/12/28 17:22:23;;;;;;;6.30;3.25;;;7.60;99.90;;;;;;4906769;29;20321;-74
2022/12/28 17:24:49;;;;;;;6.53;3.08;;;7.60;99.90;;;;;;4906381;29;20029;-74
2022/12/28 17:27:15;;;;;;;5.80;2.67;;;7.60;99.90;;;;;;4906314;29;20039;-74
2022/12/28 17:29:40;;;;;;;6.05;3.30;;;7.50;99.90;;;;;;4906344;29;20028;-74
2022/12/28 17:32:06;;;;;;;6.40;3.17;;;7.50;99.90;;;;;;4906806;29;20137;-76
2022/12/28 17:34:32;;;;;;;5.45;2.70;;;7.50;99.90;;;;;;4905492;29;20028;-74
2022/12/28 17:36:58;;;;;;;5.68;2.75;;;7.50;99.90;;;;;;4906056;29;20051;-74
2022/12/28 17:39:24;;;;;;;5.97;3.08;;;7.60;99.90;;;;;;4906431;29;20203;-74
2022/12/28 17:41:50;;;;;;;6.05;3.88;;;7.50;99.90;;;;;;4906012;29;20104;-74
2022/12/28 17:44:16;;;;;;;7.32;3.30;;;7.60;99.90;;;;;;4906757;29;20025;-75
2022/12/28 17:46:42;;;;;;;18.05;11.40;;;7.60;99.90;;;;;;4906089;29;20056;-74
2022/12/28 17:49:12;;;;;;;7.65;4.85;;;7.60;99.90;;;;;;4906352;29;20319;-74
2022/12/28 17:51:40;;;;;;;8.98;4.97;;;7.60;99.90;;;;;;4906272;29;20216;-74
2022/12/28 17:54:09;;;;;;;6.63;3.80;;;7.60;99.90;;;;;;4906512;29;20263;-74
2022/12/28 17:56:36;;;;;;;7.20;2.88;;;7.60;99.90;;;;;;4906441;29;20119;-74
2022/12/28 17:59:02;;;;;;;7.78;3.78;;;7.70;99.90;;;;;;4906016;29;20296;-75
2022/12/28 18:01:27;;;;;;;5.53;2.60;;;7.70;99.90;;;;;;4905942;29;20044;-75
2022/12/28 18:03:54;;;;;;;6.30;3.97;;;7.60;99.90;;;;;;4906405;29;20356;-74
2022/12/28 18:06:19;;;;;;;7.93;4.85;;;7.60;99.90;;;;;;4905250;29;20035;-74
2022/12/28 18:08:45;;;;;;;8.23;4.50;;;7.60;99.90;;;;;;4905972;29;20029;-74
2022/12/28 18:11:11;;;;;;;7.28;3.78;;;7.60;99.90;;;;;;4906524;29;20032;-74
2022/12/28 18:13:38;;;;;;;5.88;3.00;;;7.60;99.90;;;;;;4905552;29;20051;-75
2022/12/28 18:16:05;;;;;;;6.63;3.45;;;7.60;99.90;;;;;;4905664;29;20307;-74
2022/12/28 18:18:32;;;;;;;6.47;3.28;;;7.70;99.90;;;;;;4906468;29;20035;-75
2022/12/28 18:21:00;;;;;;;5.20;3.03;;;7.60;99.90;;;;;;4906231;29;20032;-75
2022/12/28 18:23:27;;;;;;;5.22;3.00;;;7.60;99.90;;;;;;4904895;29;20067;-75
2022/12/28 18:26:14;;;;;;;6.90;3.33;;;7.50;99.90;;;;;;4904884;29;20095;-76
2022/12/28 18:28:39;;;;;;;5.25;3.17;;;7.50;99.90;;;;;;4905961;29;20033;-74
2022/12/28 18:31:05;;;;;;;5.60;3.00;;;7.50;99.90;;;;;;4905957;29;20051;-74
2022/12/28 18:33:33;;;;;;;5.75;3.40;;;7.40;99.90;;;;;;4905941;29;20033;-75
2022/12/28 18:36:01;;;;;;;7.03;3.72;;;7.40;99.90;;;;;;4905020;29;20059;-75
2022/12/28 18:38:27;;;;;;;;;;;7.30;99.90;;;;;;4909615;29;20179;-75
2022/12/28 18:40:54;;;;;;;6.43;3.50;;;7.20;99.90;;;;;;4909004;29;20189;-75
2022/12/28 18:43:21;;;;;;;6.60;3.27;;;7.20;99.90;;;;;;4909319;29;20060;-75
2022/12/28 18:45:59;;;;;;;6.95;3.60;;;7.20;99.90;;;;;;4909129;29;20445;-75
2022/12/28 18:48:25;;;;;;;;;;;7.10;99.90;;;;;;4908902;29;20025;-75
2022/12/28 18:51:04;;;;;;;6.38;3.35;;;7.10;99.90;;;;;;4909378;29;20185;-75
2022/12/28 18:53:30;;;;;;;;;;;7.00;99.90;;;;;;4910307;29;20029;-75
2022/12/28 18:56:00;;;;;;;7.72;3.53;;;7.00;99.90;;;;;;4909194;29;19908;-75
2022/12/28 18:58:28;;;;;;;7.70;2.97;;;7.00;99.90;;;;;;4908449;29;20040;-75
2022/12/28 19:01:10;;;;;;;7.23;3.77;;;7.00;99.90;;;;;;4908874;29;20033;-74
2022/12/28 19:03:36;;;;;;;6.50;2.97;;;7.00;99.90;;;;;;4908079;29;20750;-74
2022/12/28 19:06:04;;;;;;;6.05;3.40;;;7.00;99.90;;;;;;4908742;29;20039;-75
2022/12/28 19:08:32;;;;;;;6.00;3.35;;;6.90;99.90;;;;;;4908953;29;20148;-75
2022/12/28 19:10:58;;;;;;;6.55;3.35;;;6.90;99.90;;;;;;4907144;29;20346;-75
2022/12/28 19:13:24;;;;;;;5.88;3.30;;;6.80;99.90;;;;;;4909105;29;20036;-75